createdAt,value
2022-12-18T00:02:14.727Z,5.23
2022-12-18T00:05:18.764Z,5.26
2022-12-18T00:08:22.914Z,5.48
2022-12-18T00:11:26.669Z,5.32
2022-12-18T00:14:30.648Z,5.32
2022-12-18T00:17:34.837Z,5.38
2022-12-18T00:20:38.815Z,5.48
2022-12-18T00:23:43.297Z,5.45
2022-12-18T00:26:47.505Z,4.53
2022-12-18T00:29:53.110Z,4.37
2022-12-18T00:32:57.305Z,3.92
2022-12-18T00:36:01.412Z,4.81
2022-12-18T00:39:05.277Z,4.95
2022-12-18T00:42:09.913Z,4.81
2022-12-18T00:45:14.144Z,4.73
2022-12-18T00:48:17.943Z,4.71
2022-12-18T00:51:21.937Z,4.92
2022-12-18T00:54:25.899Z,5.11
2022-12-18T00:57:30.420Z,5.12
2022-12-18T01:00:34.478Z,5.06
2022-12-18T01:03:38.643Z,5.02
2022-12-18T01:06:42.868Z,5.02
2022-12-18T01:09:46.914Z,5.20
2022-12-18T01:12:50.761Z,4.90
2022-12-18T01:15:54.608Z,4.32
2022-12-18T01:18:58.650Z,4.86
2022-12-18T01:22:02.411Z,5.29
2022-12-18T01:25:06.659Z,5.31
2022-12-18T01:28:10.757Z,4.86
2022-12-18T01:31:14.558Z,4.75
2022-12-18T01:34:18.356Z,5.07
2022-12-18T01:37:22.533Z,5.32
2022-12-18T01:40:27.318Z,5.21
2022-12-18T01:43:31.928Z,4.82
2022-12-18T01:46:36.069Z,4.96
2022-12-18T01:49:40.037Z,4.82
2022-12-18T01:52:44.207Z,4.74
2022-12-18T01:55:48.403Z,5.10
2022-12-18T01:58:52.531Z,4.74
2022-12-18T02:01:57.475Z,4.48
2022-12-18T02:05:01.836Z,4.57
2022-12-18T02:08:05.584Z,4.85
2022-12-18T02:11:09.587Z,5.10
2022-12-18T02:14:13.666Z,4.40
2022-12-18T02:17:17.608Z,4.22
2022-12-18T02:20:21.607Z,3.94
2022-12-18T02:23:25.810Z,4.20
2022-12-18T02:26:29.878Z,4.14
2022-12-18T02:29:33.864Z,4.21
2022-12-18T02:32:37.711Z,4.34
2022-12-18T02:35:41.857Z,4.33
2022-12-18T02:38:46.120Z,4.22
2022-12-18T02:41:50.264Z,4.32
2022-12-18T02:44:54.187Z,4.29
2022-12-18T02:47:58.246Z,4.20
2022-12-18T02:51:02.586Z,4.09
2022-12-18T02:54:06.615Z,4.48
2022-12-18T02:57:10.680Z,3.91
2022-12-18T03:00:14.571Z,4.04
2022-12-18T03:03:18.703Z,3.86
2022-12-18T03:06:23.806Z,3.80
2022-12-18T03:09:27.875Z,3.92
2022-12-18T03:12:32.123Z,3.71
2022-12-18T03:15:35.710Z,3.78
2022-12-18T03:18:39.842Z,3.92
2022-12-18T03:21:43.880Z,3.65
2022-12-18T03:24:47.871Z,3.25
2022-12-18T03:27:51.797Z,3.53
2022-12-18T03:30:55.704Z,3.58
2022-12-18T03:34:00.024Z,3.59
2022-12-18T03:37:04.114Z,3.79
2022-12-18T03:40:08.217Z,3.57
2022-12-18T03:43:12.138Z,3.66
2022-12-18T03:46:16.387Z,4.06
2022-12-18T03:49:20.276Z,3.95
2022-12-18T03:52:24.332Z,3.84
2022-12-18T03:55:28.023Z,3.56
2022-12-18T03:58:32.112Z,3.49
2022-12-18T04:01:36.435Z,3.83
2022-12-18T04:04:40.272Z,3.86
2022-12-18T04:07:44.216Z,3.59
2022-12-18T04:10:47.799Z,3.41
2022-12-18T04:13:51.952Z,3.65
2022-12-18T04:16:55.674Z,3.49
2022-12-18T04:20:01.634Z,3.32
2022-12-18T04:23:05.665Z,3.74
2022-12-18T04:26:09.644Z,3.95
2022-12-18T04:29:14.179Z,3.97
2022-12-18T04:32:18.382Z,3.90
2022-12-18T04:35:22.280Z,3.94
2022-12-18T04:38:26.183Z,3.33
2022-12-18T04:41:29.743Z,3.58
2022-12-18T04:44:33.910Z,3.66
2022-12-18T04:47:37.958Z,3.97
2022-12-18T04:50:41.667Z,3.83
2022-12-18T04:53:45.172Z,4.44
2022-12-18T04:56:49.335Z,4.14
2022-12-18T04:59:53.184Z,3.93
2022-12-18T05:02:57.195Z,3.65
2022-12-18T05:06:00.974Z,3.95
2022-12-18T05:09:04.903Z,3.67
2022-12-18T05:12:10.100Z,3.71
2022-12-18T05:15:14.075Z,4.01
2022-12-18T05:18:18.050Z,3.55
2022-12-18T05:21:22.078Z,3.57
2022-12-18T05:24:25.953Z,3.73
2022-12-18T05:27:30.333Z,3.85
2022-12-18T05:30:34.372Z,4.20
2022-12-18T05:33:38.301Z,3.92
2022-12-18T05:36:42.435Z,4.22
2022-12-18T05:39:46.712Z,4.13
2022-12-18T05:42:51.010Z,3.76
2022-12-18T05:45:54.887Z,4.06
2022-12-18T05:48:58.798Z,4.10
2022-12-18T05:52:02.903Z,3.95
2022-12-18T05:55:06.730Z,3.96
2022-12-18T05:58:10.774Z,3.83
2022-12-18T06:01:14.886Z,4.07
2022-12-18T06:04:18.815Z,4.25
2022-12-18T06:07:23.006Z,4.41
2022-12-18T06:10:26.768Z,4.53
2022-12-18T06:13:31.058Z,4.54
2022-12-18T06:16:35.030Z,3.91
2022-12-18T06:19:38.964Z,3.85
2022-12-18T06:22:43.022Z,4.22
2022-12-18T06:25:47.160Z,4.39
2022-12-18T06:28:50.991Z,4.77
2022-12-18T06:31:55.300Z,4.03
2022-12-18T06:34:59.196Z,3.77
2022-12-18T06:38:03.216Z,4.18
2022-12-18T06:41:07.211Z,4.51
2022-12-18T06:44:10.936Z,4.40
2022-12-18T06:47:15.670Z,4.75
2022-12-18T06:50:19.996Z,4.93
2022-12-18T06:53:24.317Z,5.07
2022-12-18T06:56:28.091Z,4.88
2022-12-18T06:59:32.094Z,4.82
2022-12-18T07:02:36.255Z,4.71
2022-12-18T07:05:40.058Z,4.51
2022-12-18T07:08:44.036Z,4.88
2022-12-18T07:11:47.987Z,5.11
2022-12-18T07:14:51.937Z,4.51
2022-12-18T07:17:57.080Z,4.82
2022-12-18T07:21:00.918Z,4.75
2022-12-18T07:24:04.972Z,4.48
2022-12-18T07:27:08.957Z,4.87
2022-12-18T07:30:14.202Z,4.77
2022-12-18T07:33:18.289Z,4.31
2022-12-18T07:36:22.292Z,4.44
2022-12-18T07:39:28.421Z,4.90
2022-12-18T07:42:32.464Z,4.90
2022-12-18T07:45:36.516Z,4.96
2022-12-18T07:48:40.574Z,4.90
2022-12-18T07:51:44.893Z,5.44
2022-12-18T07:54:48.633Z,5.44
2022-12-18T07:57:55.400Z,5.42
2022-12-18T08:01:03.577Z,5.66
2022-12-18T08:04:07.262Z,5.37
2022-12-18T08:07:11.269Z,4.16
2022-12-18T08:10:15.302Z,4.35
2022-12-18T08:13:19.233Z,4.79
2022-12-18T08:16:23.241Z,5.21
2022-12-18T08:19:27.239Z,5.34
2022-12-18T08:22:31.711Z,5.50
2022-12-18T08:25:35.604Z,5.51
2022-12-18T08:28:39.887Z,5.48
2022-12-18T08:31:43.857Z,5.28
2022-12-18T08:34:48.516Z,5.51
2022-12-18T08:37:56.881Z,5.25
2022-12-18T08:41:01.000Z,4.84
2022-12-18T08:44:05.469Z,5.47
2022-12-18T08:47:10.645Z,5.27
2022-12-18T08:50:14.776Z,5.06
2022-12-18T08:53:18.614Z,5.35
2022-12-18T08:56:23.009Z,5.70
2022-12-18T08:59:27.093Z,5.44
2022-12-18T09:02:31.294Z,5.76
2022-12-18T09:05:35.424Z,5.80
2022-12-18T09:08:39.797Z,5.73
2022-12-18T09:11:44.042Z,5.69
2022-12-18T09:14:47.943Z,5.85
2022-12-18T09:17:51.878Z,5.31
2022-12-18T09:20:55.692Z,5.65
2022-12-18T09:23:59.634Z,5.87
2022-12-18T09:27:03.544Z,5.79
2022-12-18T09:30:07.359Z,5.81
2022-12-18T09:33:11.343Z,6.17
2022-12-18T09:36:15.305Z,5.79
2022-12-18T09:39:19.244Z,6.25
2022-12-18T09:42:27.171Z,6.08
2022-12-18T09:45:31.096Z,5.71
2022-12-18T09:48:34.850Z,5.34
2022-12-18T09:51:38.977Z,5.81
2022-12-18T09:54:42.986Z,5.91
2022-12-18T09:57:47.019Z,6.14
2022-12-18T10:00:50.944Z,6.12
2022-12-18T10:03:55.130Z,6.32
2022-12-18T10:07:04.320Z,5.80
2022-12-18T10:10:11.320Z,6.15
2022-12-18T10:13:15.076Z,6.11
2022-12-18T10:16:21.058Z,6.54
2022-12-18T10:19:25.137Z,6.52
2022-12-18T10:22:29.035Z,6.52
2022-12-18T10:25:33.155Z,6.32
2022-12-18T10:28:37.249Z,6.59
2022-12-18T10:31:41.455Z,5.65
2022-12-18T10:34:49.501Z,6.21
2022-12-18T10:37:57.661Z,6.10
2022-12-18T10:41:02.020Z,6.27
2022-12-18T10:44:06.155Z,5.96
2022-12-18T10:47:11.922Z,5.87
2022-12-18T10:50:16.045Z,6.12
2022-12-18T10:53:19.807Z,6.12
2022-12-18T10:56:25.014Z,6.38
2022-12-18T10:59:28.953Z,6.22
2022-12-18T11:02:32.969Z,6.26
2022-12-18T11:05:36.830Z,6.54
2022-12-18T11:08:41.356Z,6.34
2022-12-18T11:11:45.643Z,6.55
2022-12-18T11:14:50.756Z,6.61
2022-12-18T11:17:54.786Z,6.25
2022-12-18T11:20:59.116Z,5.80
2022-12-18T11:24:03.189Z,6.13
2022-12-18T11:27:07.185Z,6.06
2022-12-18T11:30:10.892Z,6.12
2022-12-18T11:33:14.872Z,6.49
2022-12-18T11:36:18.648Z,6.77
2022-12-18T11:39:22.695Z,6.91
2022-12-18T11:42:27.314Z,7.00
2022-12-18T11:45:30.842Z,6.97
2022-12-18T11:48:34.695Z,6.50
2022-12-18T11:51:38.407Z,6.77
2022-12-18T11:54:42.319Z,6.41
2022-12-18T11:57:46.729Z,6.80
2022-12-18T12:00:50.715Z,6.76
2022-12-18T12:03:54.729Z,6.48
2022-12-18T12:07:03.133Z,6.63
2022-12-18T12:10:07.818Z,6.18
2022-12-18T12:13:11.859Z,6.57
2022-12-18T12:16:15.820Z,6.56
2022-12-18T12:19:25.874Z,6.69
2022-12-18T12:22:29.613Z,6.89
2022-12-18T12:25:33.537Z,6.62
2022-12-18T12:28:37.664Z,6.82
2022-12-18T12:31:42.093Z,6.66
2022-12-18T12:34:51.704Z,6.93
2022-12-18T12:37:57.861Z,6.76
2022-12-18T12:41:03.410Z,6.45
2022-12-18T12:44:08.534Z,6.52
2022-12-18T12:47:12.524Z,6.15
2022-12-18T12:50:17.359Z,6.49
2022-12-18T12:53:21.158Z,6.39
2022-12-18T12:56:25.842Z,6.72
2022-12-18T12:59:33.022Z,6.48
2022-12-18T13:02:38.817Z,6.59
2022-12-18T13:05:43.240Z,6.95
2022-12-18T13:08:47.460Z,6.94
2022-12-18T13:11:57.871Z,6.28
2022-12-18T13:15:08.755Z,6.65
2022-12-18T13:18:15.565Z,7.00
2022-12-18T13:21:20.087Z,7.15
2022-12-18T13:24:25.022Z,7.04
2022-12-18T13:27:28.988Z,7.12
2022-12-18T13:30:33.537Z,7.18
2022-12-18T13:33:50.766Z,7.06
2022-12-18T13:37:01.642Z,7.10
2022-12-18T13:40:05.870Z,6.96
2022-12-18T13:43:10.021Z,7.10
2022-12-18T13:46:14.139Z,7.36
2022-12-18T13:49:19.906Z,7.01
2022-12-18T13:52:23.945Z,6.80
2022-12-18T13:55:28.074Z,7.21
2022-12-18T13:58:32.010Z,7.37
2022-12-18T14:01:36.040Z,7.03
2022-12-18T14:04:39.972Z,7.34
2022-12-18T14:07:46.530Z,7.38
2022-12-18T14:10:55.228Z,7.68
2022-12-18T14:13:59.367Z,7.68
2022-12-18T14:17:03.209Z,7.57
2022-12-18T14:20:07.116Z,7.64
2022-12-18T14:23:11.216Z,7.72
2022-12-18T14:26:15.346Z,7.55
2022-12-18T14:29:19.266Z,7.41
2022-12-18T14:32:23.657Z,7.24
2022-12-18T14:35:27.739Z,7.32
2022-12-18T14:38:32.372Z,7.24
2022-12-18T14:41:36.226Z,6.81
2022-12-18T14:45:05.013Z,6.90
2022-12-18T14:48:03.736Z,7.10
2022-12-18T14:51:07.557Z,7.04
2022-12-18T14:54:11.570Z,7.03
2022-12-18T14:57:15.723Z,7.11
2022-12-18T15:00:20.975Z,7.06
2022-12-18T15:03:24.849Z,6.72
2022-12-18T15:06:30.080Z,6.60
2022-12-18T15:09:34.233Z,6.37
2022-12-18T15:12:38.111Z,7.07
2022-12-18T15:15:42.398Z,7.13
2022-12-18T15:18:46.265Z,7.22
2022-12-18T15:21:50.347Z,6.69
2022-12-18T15:24:54.284Z,6.75
2022-12-18T15:27:58.383Z,6.70
2022-12-18T15:31:02.458Z,6.69
2022-12-18T15:34:06.332Z,6.68
2022-12-18T15:37:10.667Z,6.66
2022-12-18T15:40:14.624Z,6.35
2022-12-18T15:43:19.745Z,6.57
2022-12-18T15:46:23.784Z,5.85
2022-12-18T15:49:27.553Z,6.10
2022-12-18T15:52:31.687Z,6.24
2022-12-18T15:55:35.769Z,6.18
2022-12-18T15:58:40.322Z,6.01
2022-12-18T16:01:44.065Z,5.54
2022-12-18T16:04:48.008Z,6.07
2022-12-18T16:07:52.101Z,5.80
2022-12-18T16:10:56.178Z,5.81
2022-12-18T16:14:00.368Z,5.86
2022-12-18T16:17:04.102Z,6.27
2022-12-18T16:20:08.257Z,6.29
2022-12-18T16:23:12.469Z,6.28
2022-12-18T16:26:16.507Z,6.37
2022-12-18T16:29:20.654Z,6.32
2022-12-18T16:32:24.811Z,5.68
2022-12-18T16:35:28.646Z,5.48
2022-12-18T16:38:32.996Z,5.27
2022-12-18T16:41:37.088Z,5.28
2022-12-18T16:44:40.989Z,5.50
2022-12-18T16:47:45.124Z,5.99
2022-12-18T16:50:49.103Z,6.33
2022-12-18T16:53:53.282Z,6.36
2022-12-18T16:56:57.303Z,6.39
2022-12-18T17:00:05.442Z,6.40
2022-12-18T17:03:09.760Z,6.52
2022-12-18T17:06:13.478Z,6.43
2022-12-18T17:09:17.760Z,6.46
2022-12-18T17:12:21.934Z,6.73
2022-12-18T17:15:25.899Z,6.84
2022-12-18T17:18:30.015Z,6.88
2022-12-18T17:21:34.016Z,6.57
2022-12-18T17:24:38.124Z,6.78
2022-12-18T17:27:42.143Z,6.15
2022-12-18T17:30:46.091Z,6.54
2022-12-18T17:33:50.096Z,5.54
2022-12-18T17:36:54.041Z,5.82
2022-12-18T17:39:58.168Z,5.77
2022-12-18T17:43:02.126Z,5.89
2022-12-18T17:46:06.185Z,6.24
2022-12-18T17:49:13.333Z,6.37
2022-12-18T17:52:17.322Z,6.14
2022-12-18T17:55:21.351Z,6.33
2022-12-18T17:58:25.357Z,5.70
2022-12-18T18:01:29.406Z,6.00
2022-12-18T18:04:33.317Z,6.05
2022-12-18T18:07:37.350Z,5.85
2022-12-18T18:10:41.235Z,5.40
2022-12-18T18:13:47.164Z,5.38
2022-12-18T18:16:51.171Z,5.40
2022-12-18T18:19:55.324Z,4.81
2022-12-18T18:22:59.482Z,5.05
2022-12-18T18:26:03.452Z,4.94
2022-12-18T18:29:07.983Z,5.21
2022-12-18T18:32:12.608Z,4.87
2022-12-18T18:35:45.131Z,5.05
2022-12-18T18:38:44.121Z,5.82
2022-12-18T18:41:51.027Z,6.00
2022-12-18T18:44:54.960Z,5.70
2022-12-18T18:47:59.687Z,5.83
2022-12-18T18:51:03.800Z,6.04
2022-12-18T18:54:07.875Z,5.79
2022-12-18T18:57:20.399Z,6.01
2022-12-18T19:00:24.386Z,6.22
2022-12-18T19:03:28.420Z,6.02
2022-12-18T19:06:32.362Z,6.26
2022-12-18T19:09:37.394Z,6.01
2022-12-18T19:12:41.364Z,6.28
2022-12-18T19:15:45.364Z,5.83
2022-12-18T19:18:49.353Z,6.08
2022-12-18T19:21:53.274Z,6.16
2022-12-18T19:24:57.375Z,5.86
2022-12-18T19:28:01.464Z,5.94
2022-12-18T19:31:05.359Z,6.19
2022-12-18T19:34:09.360Z,6.57
2022-12-18T19:37:13.514Z,6.60
2022-12-18T19:40:17.659Z,6.52
2022-12-18T19:43:21.728Z,6.29
2022-12-18T19:46:25.810Z,5.88
2022-12-18T19:49:29.746Z,5.90
2022-12-18T19:52:34.323Z,6.16
2022-12-18T19:55:38.409Z,5.77
2022-12-18T19:58:42.910Z,6.22
2022-12-18T20:01:47.182Z,6.58
2022-12-18T20:04:51.332Z,6.51
2022-12-18T20:07:55.373Z,6.69
2022-12-18T20:10:59.255Z,6.69
2022-12-18T20:14:03.020Z,6.60
2022-12-18T20:17:06.960Z,6.67
2022-12-18T20:20:11.072Z,6.47
2022-12-18T20:23:15.271Z,6.45
2022-12-18T20:26:19.421Z,6.74
2022-12-18T20:29:23.340Z,6.78
2022-12-18T20:32:27.328Z,6.48
2022-12-18T20:35:33.571Z,6.74
2022-12-18T20:38:37.658Z,6.81
2022-12-18T20:41:41.674Z,6.30
2022-12-18T20:44:45.540Z,5.99
2022-12-18T20:47:49.670Z,5.58
2022-12-18T20:50:53.626Z,5.94
2022-12-18T20:53:57.787Z,5.92
2022-12-18T20:57:01.835Z,6.32
2022-12-18T21:00:05.657Z,6.60
2022-12-18T21:03:09.842Z,6.72
2022-12-18T21:06:14.126Z,6.86
2022-12-18T21:09:17.997Z,6.07
2022-12-18T21:12:21.987Z,6.22
2022-12-18T21:15:28.790Z,6.35
2022-12-18T21:18:33.067Z,6.37
2022-12-18T21:21:38.710Z,6.65
2022-12-18T21:24:43.379Z,6.77
2022-12-18T21:27:47.369Z,6.54
2022-12-18T21:30:51.259Z,6.51
2022-12-18T21:33:55.852Z,6.82
2022-12-18T21:37:05.876Z,6.88
2022-12-18T21:40:09.993Z,6.92
2022-12-18T21:43:16.074Z,6.50
2022-12-18T21:46:21.959Z,6.26
2022-12-18T21:49:26.004Z,6.65
2022-12-18T21:52:32.053Z,6.77
2022-12-18T21:55:38.037Z,6.86
2022-12-18T21:58:56.637Z,6.82
2022-12-18T22:02:01.375Z,5.99
2022-12-18T22:05:05.396Z,6.57
2022-12-18T22:08:09.942Z,6.79
2022-12-18T22:11:13.866Z,6.55
2022-12-18T22:14:18.734Z,5.98
2022-12-18T22:17:22.728Z,6.27
2022-12-18T22:20:26.913Z,6.30
2022-12-18T22:23:31.004Z,6.27
2022-12-18T22:26:39.455Z,6.43
2022-12-18T22:29:43.925Z,6.21
2022-12-18T22:32:47.950Z,5.76
2022-12-18T22:35:51.864Z,6.33
2022-12-18T22:38:56.131Z,6.44
2022-12-18T22:42:00.159Z,6.67
2022-12-18T22:45:04.008Z,6.60
2022-12-18T22:48:07.906Z,6.72
2022-12-18T22:51:11.811Z,6.96
2022-12-18T22:54:15.814Z,6.60
2022-12-18T22:57:21.951Z,6.01
2022-12-18T23:00:25.544Z,6.27
2022-12-18T23:03:29.667Z,6.62
2022-12-18T23:06:33.643Z,6.26
2022-12-18T23:09:37.749Z,6.57
2022-12-18T23:12:41.792Z,6.94
2022-12-18T23:15:45.732Z,7.11
2022-12-18T23:18:50.032Z,7.05
2022-12-18T23:21:54.885Z,7.17
2022-12-18T23:25:01.226Z,7.03
2022-12-18T23:28:05.234Z,7.14
2022-12-18T23:31:09.137Z,7.18
2022-12-18T23:34:13.019Z,7.02
2022-12-18T23:37:35.296Z,7.07
2022-12-18T23:40:40.958Z,6.77
2022-12-18T23:43:44.874Z,6.84
2022-12-18T23:46:50.862Z,6.68
2022-12-18T23:49:54.977Z,6.69
2022-12-18T23:53:05.014Z,6.75
2022-12-18T23:56:09.687Z,7.10
2022-12-18T23:59:14.065Z,6.87
